<?xml version="1.0" encoding="UTF-8" standalone="no" ?>
<gpx xmlns="http://www.topografix.com/GPX/1/1" xmlns:xsi="http://www.w3.org/2001/XMLSchema-instance" xsi:schemaLocation="http://www.topografix.com/GPX/1/1 http://www.topografix.com/GPX/1/1/gpx.xsd" version="1.1" creator="VisuGPX - https://www.visugpx.com">
  <metadata>
    <name>ASLPM marche à Marans 5/1/2015</name>
    <desc><![CDATA[Marche ASLP Marans du 5/1/2015]]></desc>
  </metadata>
  <trk>
    <name><![CDATA[Marche Marans]]></name>
    <trkseg>
      <trkpt lat="46.30439" lon="-0.99532">
        <ele>13.39999961853</ele>
        <time>2015-01-05T08:15:35.000Z</time>
      </trkpt>
      <trkpt lat="46.30435" lon="-0.99535">
        <ele>13.39999961853</ele>
        <time>2015-01-05T08:15:42.000Z</time>
      </trkpt>
      <trkpt lat="46.3043" lon="-0.99538">
        <ele>13.39999961853</ele>
        <time>2015-01-05T08:15:49.000Z</time>
      </trkpt>
      <trkpt lat="46.30426" lon="-0.9954">
        <ele>13.39999961853</ele>
        <time>2015-01-05T08:15:54.000Z</time>
      </trkpt>
      <trkpt lat="46.3042" lon="-0.99541">
        <ele>13.39999961853</ele>
        <time>2015-01-05T08:16:00.000Z</time>
      </trkpt>
      <trkpt lat="46.30408" lon="-0.99543">
        <ele>14.60000038147</ele>
        <time>2015-01-05T08:16:10.000Z</time>
      </trkpt>
      <trkpt lat="46.30397" lon="-0.99545">
        <ele>15.199999809265</ele>
        <time>2015-01-05T08:16:20.000Z</time>
      </trkpt>
      <trkpt lat="46.30386" lon="-0.9954">
        <ele>15.39999961853</ele>
        <time>2015-01-05T08:16:31.000Z</time>
      </trkpt>
      <trkpt lat="46.30384" lon="-0.99536">
        <ele>15.39999961853</ele>
        <time>2015-01-05T08:16:37.000Z</time>
      </trkpt>
      <trkpt lat="46.30384" lon="-0.99532">
        <ele>15.39999961853</ele>
        <time>2015-01-05T08:16:43.000Z</time>
      </trkpt>
      <trkpt lat="46.30384" lon="-0.99529">
        <ele>15.39999961853</ele>
        <time>2015-01-05T08:16:49.000Z</time>
      </trkpt>
      <trkpt lat="46.30384" lon="-0.99522">
        <ele>15.39999961853</ele>
        <time>2015-01-05T08:16:58.000Z</time>
      </trkpt>
      <trkpt lat="46.30383" lon="-0.99516">
        <ele>15.39999961853</ele>
        <time>2015-01-05T08:17:05.000Z</time>
      </trkpt>
      <trkpt lat="46.30383" lon="-0.99517">
        <ele>15.39999961853</ele>
        <time>2015-01-05T08:17:12.000Z</time>
      </trkpt>
      <trkpt lat="46.30385" lon="-0.99514">
        <ele>15.39999961853</ele>
        <time>2015-01-05T08:17:27.000Z</time>
      </trkpt>
      <trkpt lat="46.30386" lon="-0.99512">
        <ele>15.39999961853</ele>
        <time>2015-01-05T08:17:35.000Z</time>
      </trkpt>
      <trkpt lat="46.30387" lon="-0.99509">
        <ele>15.39999961853</ele>
        <time>2015-01-05T08:17:41.000Z</time>
      </trkpt>
      <trkpt lat="46.30387" lon="-0.99499">
        <ele>15.39999961853</ele>
        <time>2015-01-05T08:17:48.000Z</time>
      </trkpt>
      <trkpt lat="46.30386" lon="-0.99487">
        <ele>15.39999961853</ele>
        <time>2015-01-05T08:17:56.000Z</time>
      </trkpt>
      <trkpt lat="46.30386" lon="-0.9948">
        <ele>15.39999961853</ele>
        <time>2015-01-05T08:18:02.000Z</time>
      </trkpt>
      <trkpt lat="46.30385" lon="-0.99467">
        <ele>15.39999961853</ele>
        <time>2015-01-05T08:18:11.000Z</time>
      </trkpt>
      <trkpt lat="46.30383" lon="-0.99454">
        <ele>15.39999961853</ele>
        <time>2015-01-05T08:18:20.000Z</time>
      </trkpt>
      <trkpt lat="46.30381" lon="-0.99438">
        <ele>15.39999961853</ele>
        <time>2015-01-05T08:18:31.000Z</time>
      </trkpt>
      <trkpt lat="46.30376" lon="-0.9943">
        <ele>15.39999961853</ele>
        <time>2015-01-05T08:18:39.000Z</time>
      </trkpt>
      <trkpt lat="46.30375" lon="-0.99418">
        <ele>15.39999961853</ele>
        <time>2015-01-05T08:18:47.000Z</time>
      </trkpt>
      <trkpt lat="46.30374" lon="-0.99413">
        <ele>15.39999961853</ele>
        <time>2015-01-05T08:18:51.000Z</time>
      </trkpt>
      <trkpt lat="46.30368" lon="-0.99396">
        <ele>15.39999961853</ele>
        <time>2015-01-05T08:19:02.000Z</time>
      </trkpt>
      <trkpt lat="46.30361" lon="-0.99385">
        <ele>15.39999961853</ele>
        <time>2015-01-05T08:19:11.000Z</time>
      </trkpt>
      <trkpt lat="46.30321" lon="-0.99391">
        <ele>15.39999961853</ele>
        <time>2015-01-05T08:19:40.000Z</time>
      </trkpt>
      <trkpt lat="46.30311" lon="-0.99396">
        <ele>14.800000190735</ele>
        <time>2015-01-05T08:19:48.000Z</time>
      </trkpt>
      <trkpt lat="46.30299" lon="-0.99402">
        <ele>14</ele>
        <time>2015-01-05T08:19:56.000Z</time>
      </trkpt>
      <trkpt lat="46.30284" lon="-0.9941">
        <ele>13.60000038147</ele>
        <time>2015-01-05T08:20:07.000Z</time>
      </trkpt>
      <trkpt lat="46.3027" lon="-0.99418">
        <ele>13.39999961853</ele>
        <time>2015-01-05T08:20:17.000Z</time>
      </trkpt>
      <trkpt lat="46.30257" lon="-0.99426">
        <ele>13</ele>
        <time>2015-01-05T08:20:27.000Z</time>
      </trkpt>
      <trkpt lat="46.30242" lon="-0.99434">
        <ele>12</ele>
        <time>2015-01-05T08:20:38.000Z</time>
      </trkpt>
      <trkpt lat="46.3023" lon="-0.99441">
        <ele>11.60000038147</ele>
        <time>2015-01-05T08:20:48.000Z</time>
      </trkpt>
      <trkpt lat="46.30218" lon="-0.99449">
        <ele>11.39999961853</ele>
        <time>2015-01-05T08:20:57.000Z</time>
      </trkpt>
      <trkpt lat="46.30207" lon="-0.99458">
        <ele>11.39999961853</ele>
        <time>2015-01-05T08:21:06.000Z</time>
      </trkpt>
      <trkpt lat="46.30195" lon="-0.99468">
        <ele>11.39999961853</ele>
        <time>2015-01-05T08:21:16.000Z</time>
      </trkpt>
      <trkpt lat="46.30185" lon="-0.99477">
        <ele>11.39999961853</ele>
        <time>2015-01-05T08:21:25.000Z</time>
      </trkpt>
      <trkpt lat="46.30178" lon="-0.99485">
        <ele>11.39999961853</ele>
        <time>2015-01-05T08:21:33.000Z</time>
      </trkpt>
      <trkpt lat="46.30167" lon="-0.99499">
        <ele>11.39999961853</ele>
        <time>2015-01-05T08:21:44.000Z</time>
      </trkpt>
      <trkpt lat="46.30168" lon="-0.99511">
        <ele>11.39999961853</ele>
        <time>2015-01-05T08:21:50.000Z</time>
      </trkpt>
      <trkpt lat="46.30179" lon="-0.99525">
        <ele>11.39999961853</ele>
        <time>2015-01-05T08:22:00.000Z</time>
      </trkpt>
      <trkpt lat="46.30187" lon="-0.99538">
        <ele>11.39999961853</ele>
        <time>2015-01-05T08:22:09.000Z</time>
      </trkpt>
      <trkpt lat="46.30197" lon="-0.99557">
        <ele>11.39999961853</ele>
        <time>2015-01-05T08:22:21.000Z</time>
      </trkpt>
      <trkpt lat="46.30204" lon="-0.99575">
        <ele>11.39999961853</ele>
        <time>2015-01-05T08:22:31.000Z</time>
      </trkpt>
      <trkpt lat="46.30212" lon="-0.996">
        <ele>11.39999961853</ele>
        <time>2015-01-05T08:22:45.000Z</time>
      </trkpt>
      <trkpt lat="46.30218" lon="-0.99618">
        <ele>11.39999961853</ele>
        <time>2015-01-05T08:22:55.000Z</time>
      </trkpt>
      <trkpt lat="46.30224" lon="-0.99633">
        <ele>11.39999961853</ele>
        <time>2015-01-05T08:23:03.000Z</time>
      </trkpt>
      <trkpt lat="46.30232" lon="-0.99653">
        <ele>10.199999809265</ele>
        <time>2015-01-05T08:23:14.000Z</time>
      </trkpt>
      <trkpt lat="46.30241" lon="-0.99677">
        <ele>9.6000003814697</ele>
        <time>2015-01-05T08:23:26.000Z</time>
      </trkpt>
      <trkpt lat="46.30249" lon="-0.99701">
        <ele>9.3999996185303</ele>
        <time>2015-01-05T08:23:39.000Z</time>
      </trkpt>
      <trkpt lat="46.30258" lon="-0.99726">
        <ele>9.3999996185303</ele>
        <time>2015-01-05T08:23:52.000Z</time>
      </trkpt>
      <trkpt lat="46.30263" lon="-0.99744">
        <ele>9.3999996185303</ele>
        <time>2015-01-05T08:24:01.000Z</time>
      </trkpt>
      <trkpt lat="46.30266" lon="-0.99765">
        <ele>9.3999996185303</ele>
        <time>2015-01-05T08:24:11.000Z</time>
      </trkpt>
      <trkpt lat="46.30265" lon="-0.99788">
        <ele>9.3999996185303</ele>
        <time>2015-01-05T08:24:22.000Z</time>
      </trkpt>
      <trkpt lat="46.30268" lon="-0.99813">
        <ele>9.3999996185303</ele>
        <time>2015-01-05T08:24:34.000Z</time>
      </trkpt>
      <trkpt lat="46.30274" lon="-0.99834">
        <ele>9.3999996185303</ele>
        <time>2015-01-05T08:24:44.000Z</time>
      </trkpt>
      <trkpt lat="46.30281" lon="-0.99856">
        <ele>9.3999996185303</ele>
        <time>2015-01-05T08:24:55.000Z</time>
      </trkpt>
      <trkpt lat="46.30287" lon="-0.99877">
        <ele>9.3999996185303</ele>
        <time>2015-01-05T08:25:05.000Z</time>
      </trkpt>
      <trkpt lat="46.30292" lon="-0.99896">
        <ele>9.3999996185303</ele>
        <time>2015-01-05T08:25:15.000Z</time>
      </trkpt>
      <trkpt lat="46.30297" lon="-0.99916">
        <ele>9.3999996185303</ele>
        <time>2015-01-05T08:25:25.000Z</time>
      </trkpt>
      <trkpt lat="46.30303" lon="-0.99938">
        <ele>9.3999996185303</ele>
        <time>2015-01-05T08:25:36.000Z</time>
      </trkpt>
      <trkpt lat="46.30308" lon="-0.99955">
        <ele>9.3999996185303</ele>
        <time>2015-01-05T08:25:45.000Z</time>
      </trkpt>
      <trkpt lat="46.30314" lon="-0.99974">
        <ele>8</ele>
        <time>2015-01-05T08:25:55.000Z</time>
      </trkpt>
      <trkpt lat="46.30321" lon="-0.99993">
        <ele>7.5999999046326</ele>
        <time>2015-01-05T08:26:05.000Z</time>
      </trkpt>
      <trkpt lat="46.30329" lon="-1.00013">
        <ele>7</ele>
        <time>2015-01-05T08:26:16.000Z</time>
      </trkpt>
      <trkpt lat="46.30338" lon="-1.00037">
        <ele>5.8000001907349</ele>
        <time>2015-01-05T08:26:29.000Z</time>
      </trkpt>
      <trkpt lat="46.30346" lon="-1.00056">
        <ele>5.4000000953674</ele>
        <time>2015-01-05T08:26:40.000Z</time>
      </trkpt>
      <trkpt lat="46.30354" lon="-1.00074">
        <ele>4.1999998092651</ele>
        <time>2015-01-05T08:26:50.000Z</time>
      </trkpt>
      <trkpt lat="46.30361" lon="-1.00094">
        <ele>3.5999999046326</ele>
        <time>2015-01-05T08:27:01.000Z</time>
      </trkpt>
      <trkpt lat="46.30369" lon="-1.00115">
        <ele>2.4000000953674</ele>
        <time>2015-01-05T08:27:12.000Z</time>
      </trkpt>
      <trkpt lat="46.30378" lon="-1.00139">
        <ele>1.3999999761581</ele>
        <time>2015-01-05T08:27:25.000Z</time>
      </trkpt>
      <trkpt lat="46.30385" lon="-1.00159">
        <ele>1.2000000476837</ele>
        <time>2015-01-05T08:27:36.000Z</time>
      </trkpt>
      <trkpt lat="46.30386" lon="-1.00163">
        <ele>1.2000000476837</ele>
        <time>2015-01-05T08:27:38.000Z</time>
      </trkpt>
      <trkpt lat="46.30394" lon="-1.00188">
        <ele>1.2000000476837</ele>
        <time>2015-01-05T08:27:51.000Z</time>
      </trkpt>
      <trkpt lat="46.304" lon="-1.00207">
        <ele>1.2000000476837</ele>
        <time>2015-01-05T08:28:01.000Z</time>
      </trkpt>
      <trkpt lat="46.30409" lon="-1.00231">
        <ele>1.2000000476837</ele>
        <time>2015-01-05T08:28:14.000Z</time>
      </trkpt>
      <trkpt lat="46.3042" lon="-1.00253">
        <ele>1.2000000476837</ele>
        <time>2015-01-05T08:28:27.000Z</time>
      </trkpt>
      <trkpt lat="46.30432" lon="-1.00273">
        <ele>1.2000000476837</ele>
        <time>2015-01-05T08:28:40.000Z</time>
      </trkpt>
      <trkpt lat="46.30442" lon="-1.00292">
        <ele>1.3999999761581</ele>
        <time>2015-01-05T08:28:51.000Z</time>
      </trkpt>
      <trkpt lat="46.30454" lon="-1.00314">
        <ele>2.7999999523163</ele>
        <time>2015-01-05T08:29:04.000Z</time>
      </trkpt>
      <trkpt lat="46.30464" lon="-1.00334">
        <ele>3</ele>
        <time>2015-01-05T08:29:16.000Z</time>
      </trkpt>
      <trkpt lat="46.30475" lon="-1.00355">
        <ele>3.2000000476837</ele>
        <time>2015-01-05T08:29:28.000Z</time>
      </trkpt>
      <trkpt lat="46.30484" lon="-1.00376">
        <ele>3.2000000476837</ele>
        <time>2015-01-05T08:29:40.000Z</time>
      </trkpt>
      <trkpt lat="46.30491" lon="-1.00395">
        <ele>3.2000000476837</ele>
        <time>2015-01-05T08:29:50.000Z</time>
      </trkpt>
      <trkpt lat="46.305" lon="-1.00418">
        <ele>3.2000000476837</ele>
        <time>2015-01-05T08:30:03.000Z</time>
      </trkpt>
      <trkpt lat="46.30507" lon="-1.00436">
        <ele>3.2000000476837</ele>
        <time>2015-01-05T08:30:13.000Z</time>
      </trkpt>
      <trkpt lat="46.30521" lon="-1.00474">
        <ele>3.2000000476837</ele>
        <time>2015-01-05T08:30:33.000Z</time>
      </trkpt>
      <trkpt lat="46.30528" lon="-1.00495">
        <ele>3.2000000476837</ele>
        <time>2015-01-05T08:30:44.000Z</time>
      </trkpt>
      <trkpt lat="46.30531" lon="-1.00517">
        <ele>3.2000000476837</ele>
        <time>2015-01-05T08:30:55.000Z</time>
      </trkpt>
      <trkpt lat="46.30533" lon="-1.00534">
        <ele>3.2000000476837</ele>
        <time>2015-01-05T08:31:03.000Z</time>
      </trkpt>
      <trkpt lat="46.30535" lon="-1.0055">
        <ele>3.2000000476837</ele>
        <time>2015-01-05T08:31:11.000Z</time>
      </trkpt>
      <trkpt lat="46.30535" lon="-1.00569">
        <ele>3.2000000476837</ele>
        <time>2015-01-05T08:31:20.000Z</time>
      </trkpt>
      <trkpt lat="46.30535" lon="-1.0059">
        <ele>3.2000000476837</ele>
        <time>2015-01-05T08:31:30.000Z</time>
      </trkpt>
      <trkpt lat="46.30536" lon="-1.00609">
        <ele>3.2000000476837</ele>
        <time>2015-01-05T08:31:39.000Z</time>
      </trkpt>
      <trkpt lat="46.30535" lon="-1.00628">
        <ele>3.2000000476837</ele>
        <time>2015-01-05T08:31:48.000Z</time>
      </trkpt>
      <trkpt lat="46.30534" lon="-1.00652">
        <ele>3.2000000476837</ele>
        <time>2015-01-05T08:32:00.000Z</time>
      </trkpt>
      <trkpt lat="46.30534" lon="-1.00674">
        <ele>3.2000000476837</ele>
        <time>2015-01-05T08:32:11.000Z</time>
      </trkpt>
      <trkpt lat="46.30532" lon="-1.00696">
        <ele>3.2000000476837</ele>
        <time>2015-01-05T08:32:22.000Z</time>
      </trkpt>
      <trkpt lat="46.3053" lon="-1.00716">
        <ele>3.2000000476837</ele>
        <time>2015-01-05T08:32:32.000Z</time>
      </trkpt>
      <trkpt lat="46.30525" lon="-1.00737">
        <ele>3.2000000476837</ele>
        <time>2015-01-05T08:32:42.000Z</time>
      </trkpt>
      <trkpt lat="46.3052" lon="-1.00759">
        <ele>3.2000000476837</ele>
        <time>2015-01-05T08:32:53.000Z</time>
      </trkpt>
      <trkpt lat="46.30518" lon="-1.0077">
        <ele>3.2000000476837</ele>
        <time>2015-01-05T08:32:59.000Z</time>
      </trkpt>
      <trkpt lat="46.30513" lon="-1.00794">
        <ele>3.2000000476837</ele>
        <time>2015-01-05T08:33:11.000Z</time>
      </trkpt>
      <trkpt lat="46.3051" lon="-1.00811">
        <ele>4.1999998092651</ele>
        <time>2015-01-05T08:33:20.000Z</time>
      </trkpt>
      <trkpt lat="46.30507" lon="-1.00829">
        <ele>4.8000001907349</ele>
        <time>2015-01-05T08:33:29.000Z</time>
      </trkpt>
      <trkpt lat="46.30503" lon="-1.00852">
        <ele>5</ele>
        <time>2015-01-05T08:33:40.000Z</time>
      </trkpt>
      <trkpt lat="46.30499" lon="-1.00872">
        <ele>5.1999998092651</ele>
        <time>2015-01-05T08:33:50.000Z</time>
      </trkpt>
      <trkpt lat="46.30494" lon="-1.00899">
        <ele>5.1999998092651</ele>
        <time>2015-01-05T08:34:03.000Z</time>
      </trkpt>
      <trkpt lat="46.3049" lon="-1.00919">
        <ele>5.1999998092651</ele>
        <time>2015-01-05T08:34:13.000Z</time>
      </trkpt>
      <trkpt lat="46.30485" lon="-1.00945">
        <ele>5.1999998092651</ele>
        <time>2015-01-05T08:34:26.000Z</time>
      </trkpt>
      <trkpt lat="46.3048" lon="-1.00971">
        <ele>5.1999998092651</ele>
        <time>2015-01-05T08:34:39.000Z</time>
      </trkpt>
      <trkpt lat="46.30475" lon="-1.00997">
        <ele>5.1999998092651</ele>
        <time>2015-01-05T08:34:52.000Z</time>
      </trkpt>
      <trkpt lat="46.30471" lon="-1.0102">
        <ele>5.1999998092651</ele>
        <time>2015-01-05T08:35:03.000Z</time>
      </trkpt>
      <trkpt lat="46.30466" lon="-1.01045">
        <ele>5.1999998092651</ele>
        <time>2015-01-05T08:35:15.000Z</time>
      </trkpt>
      <trkpt lat="46.30457" lon="-1.01088">
        <ele>4.8000001907349</ele>
        <time>2015-01-05T08:35:36.000Z</time>
      </trkpt>
      <trkpt lat="46.30453" lon="-1.01114">
        <ele>3.5999999046326</ele>
        <time>2015-01-05T08:35:48.000Z</time>
      </trkpt>
      <trkpt lat="46.30448" lon="-1.01139">
        <ele>3.4000000953674</ele>
        <time>2015-01-05T08:36:00.000Z</time>
      </trkpt>
      <trkpt lat="46.30444" lon="-1.01159">
        <ele>3.2000000476837</ele>
        <time>2015-01-05T08:36:10.000Z</time>
      </trkpt>
      <trkpt lat="46.30439" lon="-1.0118">
        <ele>3.2000000476837</ele>
        <time>2015-01-05T08:36:20.000Z</time>
      </trkpt>
      <trkpt lat="46.30433" lon="-1.01203">
        <ele>3.2000000476837</ele>
        <time>2015-01-05T08:36:32.000Z</time>
      </trkpt>
      <trkpt lat="46.30429" lon="-1.01219">
        <ele>3.2000000476837</ele>
        <time>2015-01-05T08:36:40.000Z</time>
      </trkpt>
      <trkpt lat="46.30423" lon="-1.01242">
        <ele>3.2000000476837</ele>
        <time>2015-01-05T08:36:52.000Z</time>
      </trkpt>
      <trkpt lat="46.30417" lon="-1.01261">
        <ele>3.2000000476837</ele>
        <time>2015-01-05T08:37:02.000Z</time>
      </trkpt>
      <trkpt lat="46.30412" lon="-1.01282">
        <ele>3.2000000476837</ele>
        <time>2015-01-05T08:37:13.000Z</time>
      </trkpt>
      <trkpt lat="46.304" lon="-1.01322">
        <ele>3.2000000476837</ele>
        <time>2015-01-05T08:37:35.000Z</time>
      </trkpt>
      <trkpt lat="46.30393" lon="-1.01343">
        <ele>3.2000000476837</ele>
        <time>2015-01-05T08:37:46.000Z</time>
      </trkpt>
      <trkpt lat="46.30388" lon="-1.01361">
        <ele>3.2000000476837</ele>
        <time>2015-01-05T08:37:56.000Z</time>
      </trkpt>
      <trkpt lat="46.30387" lon="-1.01365">
        <ele>3.2000000476837</ele>
        <time>2015-01-05T08:37:58.000Z</time>
      </trkpt>
      <trkpt lat="46.30383" lon="-1.01381">
        <ele>3.2000000476837</ele>
        <time>2015-01-05T08:38:07.000Z</time>
      </trkpt>
      <trkpt lat="46.30377" lon="-1.01399">
        <ele>3.2000000476837</ele>
        <time>2015-01-05T08:38:17.000Z</time>
      </trkpt>
      <trkpt lat="46.30371" lon="-1.01419">
        <ele>3.2000000476837</ele>
        <time>2015-01-05T08:38:28.000Z</time>
      </trkpt>
      <trkpt lat="46.30364" lon="-1.01436">
        <ele>4.4000000953674</ele>
        <time>2015-01-05T08:38:38.000Z</time>
      </trkpt>
      <trkpt lat="46.30353" lon="-1.01454">
        <ele>5</ele>
        <time>2015-01-05T08:38:50.000Z</time>
      </trkpt>
      <trkpt lat="46.30343" lon="-1.01468">
        <ele>5</ele>
        <time>2015-01-05T08:38:59.000Z</time>
      </trkpt>
      <trkpt lat="46.30336" lon="-1.01475">
        <ele>5.1999998092651</ele>
        <time>2015-01-05T08:39:05.000Z</time>
      </trkpt>
      <trkpt lat="46.30335" lon="-1.01477">
        <ele>5.1999998092651</ele>
        <time>2015-01-05T08:39:06.000Z</time>
      </trkpt>
      <trkpt lat="46.30335" lon="-1.01484">
        <ele>5.1999998092651</ele>
        <time>2015-01-05T08:39:12.000Z</time>
      </trkpt>
      <trkpt lat="46.30334" lon="-1.01486">
        <ele>5.1999998092651</ele>
        <time>2015-01-05T08:39:14.000Z</time>
      </trkpt>
      <trkpt lat="46.30333" lon="-1.01489">
        <ele>5.1999998092651</ele>
        <time>2015-01-05T08:39:17.000Z</time>
      </trkpt>
      <trkpt lat="46.30331" lon="-1.01492">
        <ele>5.1999998092651</ele>
        <time>2015-01-05T08:39:23.000Z</time>
      </trkpt>
      <trkpt lat="46.30331" lon="-1.01495">
        <ele>5.1999998092651</ele>
        <time>2015-01-05T08:39:29.000Z</time>
      </trkpt>
      <trkpt lat="46.30331" lon="-1.01497">
        <ele>5.1999998092651</ele>
        <time>2015-01-05T08:39:33.000Z</time>
      </trkpt>
      <trkpt lat="46.30332" lon="-1.01498">
        <ele>5.1999998092651</ele>
        <time>2015-01-05T08:39:44.000Z</time>
      </trkpt>
      <trkpt lat="46.30333" lon="-1.015">
        <ele>5.1999998092651</ele>
        <time>2015-01-05T08:39:54.000Z</time>
      </trkpt>
      <trkpt lat="46.30334" lon="-1.01504">
        <ele>5.1999998092651</ele>
        <time>2015-01-05T08:40:47.000Z</time>
      </trkpt>
      <trkpt lat="46.30336" lon="-1.01507">
        <ele>5.1999998092651</ele>
        <time>2015-01-05T08:41:05.000Z</time>
      </trkpt>
      <trkpt lat="46.30339" lon="-1.01514">
        <ele>7.1999998092651</ele>
        <time>2015-01-05T08:43:35.000Z</time>
      </trkpt>
      <trkpt lat="46.30345" lon="-1.01521">
        <ele>7.1999998092651</ele>
        <time>2015-01-05T08:43:43.000Z</time>
      </trkpt>
      <trkpt lat="46.30352" lon="-1.01528">
        <ele>7.1999998092651</ele>
        <time>2015-01-05T08:43:51.000Z</time>
      </trkpt>
      <trkpt lat="46.30356" lon="-1.01539">
        <ele>7.1999998092651</ele>
        <time>2015-01-05T08:43:57.000Z</time>
      </trkpt>
      <trkpt lat="46.30355" lon="-1.01551">
        <ele>7.1999998092651</ele>
        <time>2015-01-05T08:44:04.000Z</time>
      </trkpt>
      <trkpt lat="46.30351" lon="-1.01566">
        <ele>7.1999998092651</ele>
        <time>2015-01-05T08:44:13.000Z</time>
      </trkpt>
      <trkpt lat="46.30349" lon="-1.01582">
        <ele>7.1999998092651</ele>
        <time>2015-01-05T08:44:22.000Z</time>
      </trkpt>
      <trkpt lat="46.30348" lon="-1.01605">
        <ele>7.1999998092651</ele>
        <time>2015-01-05T08:44:34.000Z</time>
      </trkpt>
      <trkpt lat="46.30349" lon="-1.0163">
        <ele>7.1999998092651</ele>
        <time>2015-01-05T08:44:46.000Z</time>
      </trkpt>
      <trkpt lat="46.30351" lon="-1.01654">
        <ele>7.1999998092651</ele>
        <time>2015-01-05T08:44:58.000Z</time>
      </trkpt>
      <trkpt lat="46.30354" lon="-1.01677">
        <ele>7.1999998092651</ele>
        <time>2015-01-05T08:45:09.000Z</time>
      </trkpt>
      <trkpt lat="46.30356" lon="-1.01699">
        <ele>7.1999998092651</ele>
        <time>2015-01-05T08:45:20.000Z</time>
      </trkpt>
      <trkpt lat="46.30358" lon="-1.01725">
        <ele>8.1999998092651</ele>
        <time>2015-01-05T08:45:32.000Z</time>
      </trkpt>
      <trkpt lat="46.30359" lon="-1.01746">
        <ele>9</ele>
        <time>2015-01-05T08:45:42.000Z</time>
      </trkpt>
      <trkpt lat="46.30361" lon="-1.01768">
        <ele>9.1999998092651</ele>
        <time>2015-01-05T08:45:53.000Z</time>
      </trkpt>
      <trkpt lat="46.30362" lon="-1.0179">
        <ele>9.1999998092651</ele>
        <time>2015-01-05T08:46:04.000Z</time>
      </trkpt>
      <trkpt lat="46.30364" lon="-1.01818">
        <ele>9.1999998092651</ele>
        <time>2015-01-05T08:46:17.000Z</time>
      </trkpt>
      <trkpt lat="46.30366" lon="-1.01845">
        <ele>9.1999998092651</ele>
        <time>2015-01-05T08:46:30.000Z</time>
      </trkpt>
      <trkpt lat="46.30367" lon="-1.01872">
        <ele>9.1999998092651</ele>
        <time>2015-01-05T08:46:43.000Z</time>
      </trkpt>
      <trkpt lat="46.30368" lon="-1.01895">
        <ele>9.1999998092651</ele>
        <time>2015-01-05T08:46:54.000Z</time>
      </trkpt>
      <trkpt lat="46.30369" lon="-1.01919">
        <ele>8.6000003814697</ele>
        <time>2015-01-05T08:47:05.000Z</time>
      </trkpt>
      <trkpt lat="46.30371" lon="-1.01943">
        <ele>7.5999999046326</ele>
        <time>2015-01-05T08:47:16.000Z</time>
      </trkpt>
      <trkpt lat="46.30372" lon="-1.01968">
        <ele>7.4000000953674</ele>
        <time>2015-01-05T08:47:28.000Z</time>
      </trkpt>
      <trkpt lat="46.30373" lon="-1.01992">
        <ele>7.1999998092651</ele>
        <time>2015-01-05T08:47:40.000Z</time>
      </trkpt>
      <trkpt lat="46.30374" lon="-1.02043">
        <ele>5.5999999046326</ele>
        <time>2015-01-05T08:48:05.000Z</time>
      </trkpt>
      <trkpt lat="46.30371" lon="-1.02067">
        <ele>5.4000000953674</ele>
        <time>2015-01-05T08:48:17.000Z</time>
      </trkpt>
      <trkpt lat="46.30368" lon="-1.02086">
        <ele>5.1999998092651</ele>
        <time>2015-01-05T08:48:27.000Z</time>
      </trkpt>
      <trkpt lat="46.30365" lon="-1.02101">
        <ele>5.1999998092651</ele>
        <time>2015-01-05T08:48:35.000Z</time>
      </trkpt>
      <trkpt lat="46.30366" lon="-1.02104">
        <ele>5.1999998092651</ele>
        <time>2015-01-05T08:48:37.000Z</time>
      </trkpt>
      <trkpt lat="46.3037" lon="-1.02106">
        <ele>5.1999998092651</ele>
        <time>2015-01-05T08:48:41.000Z</time>
      </trkpt>
      <trkpt lat="46.3037" lon="-1.02113">
        <ele>5.1999998092651</ele>
        <time>2015-01-05T08:48:45.000Z</time>
      </trkpt>
      <trkpt lat="46.3037" lon="-1.02117">
        <ele>5.1999998092651</ele>
        <time>2015-01-05T08:48:47.000Z</time>
      </trkpt>
      <trkpt lat="46.30364" lon="-1.02126">
        <ele>5.1999998092651</ele>
        <time>2015-01-05T08:48:54.000Z</time>
      </trkpt>
      <trkpt lat="46.30353" lon="-1.02138">
        <ele>4</ele>
        <time>2015-01-05T08:49:03.000Z</time>
      </trkpt>
      <trkpt lat="46.30343" lon="-1.02147">
        <ele>3.5999999046326</ele>
        <time>2015-01-05T08:49:12.000Z</time>
      </trkpt>
      <trkpt lat="46.30333" lon="-1.02158">
        <ele>3.2000000476837</ele>
        <time>2015-01-05T08:49:21.000Z</time>
      </trkpt>
      <trkpt lat="46.30321" lon="-1.0217">
        <ele>3.2000000476837</ele>
        <time>2015-01-05T08:49:31.000Z</time>
      </trkpt>
      <trkpt lat="46.30311" lon="-1.02181">
        <ele>3.2000000476837</ele>
        <time>2015-01-05T08:49:40.000Z</time>
      </trkpt>
      <trkpt lat="46.30301" lon="-1.02198">
        <ele>3.2000000476837</ele>
        <time>2015-01-05T08:49:50.000Z</time>
      </trkpt>
      <trkpt lat="46.30291" lon="-1.02221">
        <ele>3.2000000476837</ele>
        <time>2015-01-05T08:50:03.000Z</time>
      </trkpt>
      <trkpt lat="46.30284" lon="-1.02242">
        <ele>3.2000000476837</ele>
        <time>2015-01-05T08:50:14.000Z</time>
      </trkpt>
      <trkpt lat="46.30278" lon="-1.02259">
        <ele>3.2000000476837</ele>
        <time>2015-01-05T08:50:24.000Z</time>
      </trkpt>
      <trkpt lat="46.30268" lon="-1.02268">
        <ele>3.4000000953674</ele>
        <time>2015-01-05T08:50:38.000Z</time>
      </trkpt>
      <trkpt lat="46.30264" lon="-1.02268">
        <ele>4.4000000953674</ele>
        <time>2015-01-05T08:50:46.000Z</time>
      </trkpt>
      <trkpt lat="46.30261" lon="-1.02272">
        <ele>4.8000001907349</ele>
        <time>2015-01-05T08:50:51.000Z</time>
      </trkpt>
      <trkpt lat="46.30258" lon="-1.02272">
        <ele>5.1999998092651</ele>
        <time>2015-01-05T08:52:12.000Z</time>
      </trkpt>
      <trkpt lat="46.30247" lon="-1.02271">
        <ele>5.1999998092651</ele>
        <time>2015-01-05T08:52:20.000Z</time>
      </trkpt>
      <trkpt lat="46.30236" lon="-1.02279">
        <ele>5.1999998092651</ele>
        <time>2015-01-05T08:52:29.000Z</time>
      </trkpt>
      <trkpt lat="46.30224" lon="-1.02289">
        <ele>5.1999998092651</ele>
        <time>2015-01-05T08:52:40.000Z</time>
      </trkpt>
      <trkpt lat="46.30209" lon="-1.02298">
        <ele>5.1999998092651</ele>
        <time>2015-01-05T08:52:52.000Z</time>
      </trkpt>
      <trkpt lat="46.30193" lon="-1.02306">
        <ele>5.1999998092651</ele>
        <time>2015-01-05T08:53:04.000Z</time>
      </trkpt>
      <trkpt lat="46.30181" lon="-1.02317">
        <ele>5.1999998092651</ele>
        <time>2015-01-05T08:53:14.000Z</time>
      </trkpt>
      <trkpt lat="46.30179" lon="-1.02331">
        <ele>5.1999998092651</ele>
        <time>2015-01-05T08:53:21.000Z</time>
      </trkpt>
      <trkpt lat="46.30183" lon="-1.02349">
        <ele>5.1999998092651</ele>
        <time>2015-01-05T08:53:30.000Z</time>
      </trkpt>
      <trkpt lat="46.30187" lon="-1.02374">
        <ele>5.1999998092651</ele>
        <time>2015-01-05T08:53:42.000Z</time>
      </trkpt>
      <trkpt lat="46.30192" lon="-1.02396">
        <ele>5.1999998092651</ele>
        <time>2015-01-05T08:53:53.000Z</time>
      </trkpt>
      <trkpt lat="46.30196" lon="-1.02418">
        <ele>5.1999998092651</ele>
        <time>2015-01-05T08:54:04.000Z</time>
      </trkpt>
      <trkpt lat="46.30195" lon="-1.0244">
        <ele>5.1999998092651</ele>
        <time>2015-01-05T08:54:14.000Z</time>
      </trkpt>
      <trkpt lat="46.30195" lon="-1.02441">
        <ele>5.1999998092651</ele>
        <time>2015-01-05T08:54:15.000Z</time>
      </trkpt>
      <trkpt lat="46.30189" lon="-1.02449">
        <ele>5.1999998092651</ele>
        <time>2015-01-05T08:54:21.000Z</time>
      </trkpt>
      <trkpt lat="46.30161" lon="-1.02459">
        <ele>5.1999998092651</ele>
        <time>2015-01-05T08:54:41.000Z</time>
      </trkpt>
      <trkpt lat="46.30142" lon="-1.02465">
        <ele>5.1999998092651</ele>
        <time>2015-01-05T08:54:54.000Z</time>
      </trkpt>
      <trkpt lat="46.30128" lon="-1.0247">
        <ele>5.1999998092651</ele>
        <time>2015-01-05T08:55:04.000Z</time>
      </trkpt>
      <trkpt lat="46.3011" lon="-1.02478">
        <ele>5.1999998092651</ele>
        <time>2015-01-05T08:55:17.000Z</time>
      </trkpt>
      <trkpt lat="46.30101" lon="-1.02491">
        <ele>5.1999998092651</ele>
        <time>2015-01-05T08:55:26.000Z</time>
      </trkpt>
      <trkpt lat="46.30095" lon="-1.02502">
        <ele>5.1999998092651</ele>
        <time>2015-01-05T08:55:33.000Z</time>
      </trkpt>
      <trkpt lat="46.30082" lon="-1.02506">
        <ele>5.1999998092651</ele>
        <time>2015-01-05T08:55:42.000Z</time>
      </trkpt>
      <trkpt lat="46.30068" lon="-1.02504">
        <ele>5.1999998092651</ele>
        <time>2015-01-05T08:55:52.000Z</time>
      </trkpt>
      <trkpt lat="46.30055" lon="-1.02497">
        <ele>5.1999998092651</ele>
        <time>2015-01-05T08:56:01.000Z</time>
      </trkpt>
      <trkpt lat="46.30042" lon="-1.02501">
        <ele>5.1999998092651</ele>
        <time>2015-01-05T08:56:10.000Z</time>
      </trkpt>
      <trkpt lat="46.30029" lon="-1.02505">
        <ele>5.1999998092651</ele>
        <time>2015-01-05T08:56:19.000Z</time>
      </trkpt>
      <trkpt lat="46.30012" lon="-1.02511">
        <ele>5.1999998092651</ele>
        <time>2015-01-05T08:56:31.000Z</time>
      </trkpt>
      <trkpt lat="46.29995" lon="-1.02517">
        <ele>5.1999998092651</ele>
        <time>2015-01-05T08:56:43.000Z</time>
      </trkpt>
      <trkpt lat="46.29986" lon="-1.02522">
        <ele>5.1999998092651</ele>
        <time>2015-01-05T08:56:50.000Z</time>
      </trkpt>
      <trkpt lat="46.2997" lon="-1.02528">
        <ele>5.1999998092651</ele>
        <time>2015-01-05T08:57:01.000Z</time>
      </trkpt>
      <trkpt lat="46.29959" lon="-1.02532">
        <ele>5.1999998092651</ele>
        <time>2015-01-05T08:57:09.000Z</time>
      </trkpt>
      <trkpt lat="46.29942" lon="-1.02538">
        <ele>5.1999998092651</ele>
        <time>2015-01-05T08:57:21.000Z</time>
      </trkpt>
      <trkpt lat="46.29931" lon="-1.0255">
        <ele>5.1999998092651</ele>
        <time>2015-01-05T08:57:32.000Z</time>
      </trkpt>
      <trkpt lat="46.29929" lon="-1.02552">
        <ele>5.1999998092651</ele>
        <time>2015-01-05T08:57:37.000Z</time>
      </trkpt>
      <trkpt lat="46.29923" lon="-1.02562">
        <ele>5.1999998092651</ele>
        <time>2015-01-05T08:57:43.000Z</time>
      </trkpt>
      <trkpt lat="46.29913" lon="-1.02569">
        <ele>5.1999998092651</ele>
        <time>2015-01-05T08:57:51.000Z</time>
      </trkpt>
      <trkpt lat="46.29902" lon="-1.02577">
        <ele>5.1999998092651</ele>
        <time>2015-01-05T08:58:00.000Z</time>
      </trkpt>
      <trkpt lat="46.29901" lon="-1.02581">
        <ele>5.1999998092651</ele>
        <time>2015-01-05T08:58:02.000Z</time>
      </trkpt>
      <trkpt lat="46.29905" lon="-1.02584">
        <ele>5.1999998092651</ele>
        <time>2015-01-05T08:58:06.000Z</time>
      </trkpt>
      <trkpt lat="46.29919" lon="-1.02579">
        <ele>5.1999998092651</ele>
        <time>2015-01-05T08:58:16.000Z</time>
      </trkpt>
      <trkpt lat="46.29928" lon="-1.02579">
        <ele>5.1999998092651</ele>
        <time>2015-01-05T08:58:23.000Z</time>
      </trkpt>
      <trkpt lat="46.29939" lon="-1.02593">
        <ele>5.1999998092651</ele>
        <time>2015-01-05T08:58:34.000Z</time>
      </trkpt>
      <trkpt lat="46.29946" lon="-1.02592">
        <ele>5.1999998092651</ele>
        <time>2015-01-05T08:58:39.000Z</time>
      </trkpt>
      <trkpt lat="46.2996" lon="-1.02587">
        <ele>4.1999998092651</ele>
        <time>2015-01-05T08:58:49.000Z</time>
      </trkpt>
      <trkpt lat="46.2997" lon="-1.02582">
        <ele>3.5999999046326</ele>
        <time>2015-01-05T08:58:57.000Z</time>
      </trkpt>
      <trkpt lat="46.29984" lon="-1.02577">
        <ele>2.4000000953674</ele>
        <time>2015-01-05T08:59:07.000Z</time>
      </trkpt>
      <trkpt lat="46.29997" lon="-1.02573">
        <ele>1.6000000238419</ele>
        <time>2015-01-05T08:59:17.000Z</time>
      </trkpt>
      <trkpt lat="46.30012" lon="-1.0257">
        <ele>0.40000000596046</ele>
        <time>2015-01-05T08:59:27.000Z</time>
      </trkpt>
      <trkpt lat="46.30029" lon="-1.02563">
        <ele>-0.40000000596046</ele>
        <time>2015-01-05T08:59:39.000Z</time>
      </trkpt>
      <trkpt lat="46.3004" lon="-1.02559">
        <ele>-0.80000001192093</ele>
        <time>2015-01-05T08:59:47.000Z</time>
      </trkpt>
      <trkpt lat="46.30053" lon="-1.02556">
        <ele>-0.80000001192093</ele>
        <time>2015-01-05T08:59:56.000Z</time>
      </trkpt>
      <trkpt lat="46.30062" lon="-1.02551">
        <ele>-0.80000001192093</ele>
        <time>2015-01-05T09:00:03.000Z</time>
      </trkpt>
      <trkpt lat="46.30071" lon="-1.0254">
        <ele>-1</ele>
        <time>2015-01-05T09:00:12.000Z</time>
      </trkpt>
      <trkpt lat="46.30075" lon="-1.02527">
        <ele>-1</ele>
        <time>2015-01-05T09:00:19.000Z</time>
      </trkpt>
      <trkpt lat="46.30083" lon="-1.02521">
        <ele>-1</ele>
        <time>2015-01-05T09:00:26.000Z</time>
      </trkpt>
      <trkpt lat="46.30099" lon="-1.02515">
        <ele>-1</ele>
        <time>2015-01-05T09:00:38.000Z</time>
      </trkpt>
      <trkpt lat="46.30106" lon="-1.02521">
        <ele>-1</ele>
        <time>2015-01-05T09:00:44.000Z</time>
      </trkpt>
      <trkpt lat="46.30118" lon="-1.02528">
        <ele>-1</ele>
        <time>2015-01-05T09:00:53.000Z</time>
      </trkpt>
      <trkpt lat="46.30133" lon="-1.02524">
        <ele>-1</ele>
        <time>2015-01-05T09:01:04.000Z</time>
      </trkpt>
      <trkpt lat="46.30143" lon="-1.0252">
        <ele>-1</ele>
        <time>2015-01-05T09:01:11.000Z</time>
      </trkpt>
      <trkpt lat="46.30157" lon="-1.02515">
        <ele>-1</ele>
        <time>2015-01-05T09:01:21.000Z</time>
      </trkpt>
      <trkpt lat="46.30175" lon="-1.02508">
        <ele>-1</ele>
        <time>2015-01-05T09:01:34.000Z</time>
      </trkpt>
      <trkpt lat="46.30192" lon="-1.02501">
        <ele>-1</ele>
        <time>2015-01-05T09:01:46.000Z</time>
      </trkpt>
      <trkpt lat="46.30204" lon="-1.02496">
        <ele>0.40000000596046</ele>
        <time>2015-01-05T09:01:55.000Z</time>
      </trkpt>
      <trkpt lat="46.30215" lon="-1.02486">
        <ele>0.80000001192093</ele>
        <time>2015-01-05T09:02:04.000Z</time>
      </trkpt>
      <trkpt lat="46.30223" lon="-1.02472">
        <ele>1</ele>
        <time>2015-01-05T09:02:13.000Z</time>
      </trkpt>
      <trkpt lat="46.30223" lon="-1.0247">
        <ele>1</ele>
        <time>2015-01-05T09:02:14.000Z</time>
      </trkpt>
      <trkpt lat="46.30225" lon="-1.02467">
        <ele>1</ele>
        <time>2015-01-05T09:02:17.000Z</time>
      </trkpt>
      <trkpt lat="46.30227" lon="-1.02466">
        <ele>1</ele>
        <time>2015-01-05T09:02:19.000Z</time>
      </trkpt>
      <trkpt lat="46.30231" lon="-1.02469">
        <ele>1</ele>
        <time>2015-01-05T09:02:22.000Z</time>
      </trkpt>
      <trkpt lat="46.30241" lon="-1.02477">
        <ele>1</ele>
        <time>2015-01-05T09:02:29.000Z</time>
      </trkpt>
      <trkpt lat="46.30254" lon="-1.02475">
        <ele>1</ele>
        <time>2015-01-05T09:02:37.000Z</time>
      </trkpt>
      <trkpt lat="46.3027" lon="-1.0247">
        <ele>2</ele>
        <time>2015-01-05T09:02:48.000Z</time>
      </trkpt>
      <trkpt lat="46.30289" lon="-1.02463">
        <ele>2.7999999523163</ele>
        <time>2015-01-05T09:03:01.000Z</time>
      </trkpt>
      <trkpt lat="46.30305" lon="-1.02456">
        <ele>3</ele>
        <time>2015-01-05T09:03:12.000Z</time>
      </trkpt>
      <trkpt lat="46.30317" lon="-1.02457">
        <ele>3</ele>
        <time>2015-01-05T09:03:21.000Z</time>
      </trkpt>
      <trkpt lat="46.3033" lon="-1.02457">
        <ele>3</ele>
        <time>2015-01-05T09:03:29.000Z</time>
      </trkpt>
      <trkpt lat="46.30346" lon="-1.02451">
        <ele>3</ele>
        <time>2015-01-05T09:03:40.000Z</time>
      </trkpt>
      <trkpt lat="46.30361" lon="-1.02446">
        <ele>3</ele>
        <time>2015-01-05T09:03:51.000Z</time>
      </trkpt>
      <trkpt lat="46.30373" lon="-1.02441">
        <ele>3</ele>
        <time>2015-01-05T09:04:00.000Z</time>
      </trkpt>
      <trkpt lat="46.30392" lon="-1.02433">
        <ele>3</ele>
        <time>2015-01-05T09:04:13.000Z</time>
      </trkpt>
      <trkpt lat="46.30409" lon="-1.02427">
        <ele>3</ele>
        <time>2015-01-05T09:04:25.000Z</time>
      </trkpt>
      <trkpt lat="46.30423" lon="-1.02421">
        <ele>3</ele>
        <time>2015-01-05T09:04:35.000Z</time>
      </trkpt>
      <trkpt lat="46.30436" lon="-1.02416">
        <ele>2.7999999523163</ele>
        <time>2015-01-05T09:04:44.000Z</time>
      </trkpt>
      <trkpt lat="46.30437" lon="-1.02416">
        <ele>2.7999999523163</ele>
        <time>2015-01-05T09:04:45.000Z</time>
      </trkpt>
      <trkpt lat="46.3045" lon="-1.02411">
        <ele>1.6000000238419</ele>
        <time>2015-01-05T09:04:54.000Z</time>
      </trkpt>
      <trkpt lat="46.30468" lon="-1.02404">
        <ele>1.2000000476837</ele>
        <time>2015-01-05T09:05:07.000Z</time>
      </trkpt>
      <trkpt lat="46.30482" lon="-1.02399">
        <ele>1</ele>
        <time>2015-01-05T09:05:17.000Z</time>
      </trkpt>
      <trkpt lat="46.30499" lon="-1.02392">
        <ele>-0.40000000596046</ele>
        <time>2015-01-05T09:05:30.000Z</time>
      </trkpt>
      <trkpt lat="46.30514" lon="-1.02386">
        <ele>-0.80000001192093</ele>
        <time>2015-01-05T09:05:40.000Z</time>
      </trkpt>
      <trkpt lat="46.30528" lon="-1.02382">
        <ele>-0.80000001192093</ele>
        <time>2015-01-05T09:05:49.000Z</time>
      </trkpt>
      <trkpt lat="46.30544" lon="-1.02375">
        <ele>-1.7999999523163</ele>
        <time>2015-01-05T09:06:00.000Z</time>
      </trkpt>
      <trkpt lat="46.30559" lon="-1.02371">
        <ele>-2.5999999046326</ele>
        <time>2015-01-05T09:06:10.000Z</time>
      </trkpt>
      <trkpt lat="46.30574" lon="-1.02366">
        <ele>-2.7999999523163</ele>
        <time>2015-01-05T09:06:20.000Z</time>
      </trkpt>
      <trkpt lat="46.30589" lon="-1.02361">
        <ele>-3</ele>
        <time>2015-01-05T09:06:31.000Z</time>
      </trkpt>
      <trkpt lat="46.30607" lon="-1.02354">
        <ele>-3</ele>
        <time>2015-01-05T09:06:43.000Z</time>
      </trkpt>
      <trkpt lat="46.30621" lon="-1.02349">
        <ele>-3</ele>
        <time>2015-01-05T09:06:53.000Z</time>
      </trkpt>
      <trkpt lat="46.30634" lon="-1.02344">
        <ele>-3</ele>
        <time>2015-01-05T09:07:02.000Z</time>
      </trkpt>
      <trkpt lat="46.3065" lon="-1.02338">
        <ele>-3</ele>
        <time>2015-01-05T09:07:13.000Z</time>
      </trkpt>
      <trkpt lat="46.3068" lon="-1.02327">
        <ele>-3</ele>
        <time>2015-01-05T09:07:34.000Z</time>
      </trkpt>
      <trkpt lat="46.30693" lon="-1.02321">
        <ele>-3</ele>
        <time>2015-01-05T09:07:43.000Z</time>
      </trkpt>
      <trkpt lat="46.30709" lon="-1.02313">
        <ele>-3</ele>
        <time>2015-01-05T09:07:54.000Z</time>
      </trkpt>
      <trkpt lat="46.30723" lon="-1.02305">
        <ele>-3</ele>
        <time>2015-01-05T09:08:04.000Z</time>
      </trkpt>
      <trkpt lat="46.30739" lon="-1.02295">
        <ele>-3</ele>
        <time>2015-01-05T09:08:16.000Z</time>
      </trkpt>
      <trkpt lat="46.30757" lon="-1.02282">
        <ele>-3</ele>
        <time>2015-01-05T09:08:29.000Z</time>
      </trkpt>
      <trkpt lat="46.30773" lon="-1.02269">
        <ele>-3</ele>
        <time>2015-01-05T09:08:41.000Z</time>
      </trkpt>
      <trkpt lat="46.30786" lon="-1.02257">
        <ele>-3</ele>
        <time>2015-01-05T09:08:52.000Z</time>
      </trkpt>
      <trkpt lat="46.308" lon="-1.02244">
        <ele>-2.5999999046326</ele>
        <time>2015-01-05T09:09:03.000Z</time>
      </trkpt>
      <trkpt lat="46.30811" lon="-1.02233">
        <ele>-1.6000000238419</ele>
        <time>2015-01-05T09:09:12.000Z</time>
      </trkpt>
      <trkpt lat="46.30821" lon="-1.02222">
        <ele>-1.2000000476837</ele>
        <time>2015-01-05T09:09:20.000Z</time>
      </trkpt>
      <trkpt lat="46.30834" lon="-1.02205">
        <ele>-1</ele>
        <time>2015-01-05T09:09:32.000Z</time>
      </trkpt>
      <trkpt lat="46.30847" lon="-1.0219">
        <ele>-1</ele>
        <time>2015-01-05T09:09:43.000Z</time>
      </trkpt>
      <trkpt lat="46.30861" lon="-1.02171">
        <ele>-0.20000000298023</ele>
        <time>2015-01-05T09:09:56.000Z</time>
      </trkpt>
      <trkpt lat="46.30874" lon="-1.02152">
        <ele>0.80000001192093</ele>
        <time>2015-01-05T09:10:08.000Z</time>
      </trkpt>
      <trkpt lat="46.30888" lon="-1.02132">
        <ele>1</ele>
        <time>2015-01-05T09:10:21.000Z</time>
      </trkpt>
      <trkpt lat="46.30899" lon="-1.02114">
        <ele>1</ele>
        <time>2015-01-05T09:10:32.000Z</time>
      </trkpt>
      <trkpt lat="46.30908" lon="-1.02097">
        <ele>1</ele>
        <time>2015-01-05T09:10:42.000Z</time>
      </trkpt>
      <trkpt lat="46.30918" lon="-1.02078">
        <ele>1</ele>
        <time>2015-01-05T09:10:53.000Z</time>
      </trkpt>
      <trkpt lat="46.30928" lon="-1.02058">
        <ele>1</ele>
        <time>2015-01-05T09:11:04.000Z</time>
      </trkpt>
      <trkpt lat="46.30935" lon="-1.02042">
        <ele>1</ele>
        <time>2015-01-05T09:11:13.000Z</time>
      </trkpt>
      <trkpt lat="46.30944" lon="-1.02021">
        <ele>1</ele>
        <time>2015-01-05T09:11:24.000Z</time>
      </trkpt>
      <trkpt lat="46.30954" lon="-1.01998">
        <ele>2</ele>
        <time>2015-01-05T09:11:36.000Z</time>
      </trkpt>
      <trkpt lat="46.3096" lon="-1.01978">
        <ele>2.7999999523163</ele>
        <time>2015-01-05T09:11:46.000Z</time>
      </trkpt>
      <trkpt lat="46.30967" lon="-1.01956">
        <ele>3</ele>
        <time>2015-01-05T09:11:57.000Z</time>
      </trkpt>
      <trkpt lat="46.30973" lon="-1.01933">
        <ele>3</ele>
        <time>2015-01-05T09:12:09.000Z</time>
      </trkpt>
      <trkpt lat="46.30979" lon="-1.01914">
        <ele>3</ele>
        <time>2015-01-05T09:12:19.000Z</time>
      </trkpt>
      <trkpt lat="46.30994" lon="-1.01865">
        <ele>3</ele>
        <time>2015-01-05T09:12:44.000Z</time>
      </trkpt>
      <trkpt lat="46.31" lon="-1.01845">
        <ele>3</ele>
        <time>2015-01-05T09:12:54.000Z</time>
      </trkpt>
      <trkpt lat="46.31006" lon="-1.01826">
        <ele>3</ele>
        <time>2015-01-05T09:13:04.000Z</time>
      </trkpt>
      <trkpt lat="46.31011" lon="-1.01807">
        <ele>3</ele>
        <time>2015-01-05T09:13:14.000Z</time>
      </trkpt>
      <trkpt lat="46.31018" lon="-1.01787">
        <ele>4</ele>
        <time>2015-01-05T09:13:25.000Z</time>
      </trkpt>
      <trkpt lat="46.31023" lon="-1.01767">
        <ele>4.8000001907349</ele>
        <time>2015-01-05T09:13:35.000Z</time>
      </trkpt>
      <trkpt lat="46.31029" lon="-1.01747">
        <ele>5</ele>
        <time>2015-01-05T09:13:45.000Z</time>
      </trkpt>
      <trkpt lat="46.31035" lon="-1.0173">
        <ele>5</ele>
        <time>2015-01-05T09:13:54.000Z</time>
      </trkpt>
      <trkpt lat="46.3104" lon="-1.01712">
        <ele>5.1999998092651</ele>
        <time>2015-01-05T09:14:03.000Z</time>
      </trkpt>
      <trkpt lat="46.31047" lon="-1.0169">
        <ele>4.1999998092651</ele>
        <time>2015-01-05T09:14:14.000Z</time>
      </trkpt>
      <trkpt lat="46.31059" lon="-1.0165">
        <ele>3.2000000476837</ele>
        <time>2015-01-05T09:14:34.000Z</time>
      </trkpt>
      <trkpt lat="46.31065" lon="-1.01629">
        <ele>3.2000000476837</ele>
        <time>2015-01-05T09:14:45.000Z</time>
      </trkpt>
      <trkpt lat="46.31066" lon="-1.01625">
        <ele>3.2000000476837</ele>
        <time>2015-01-05T09:14:47.000Z</time>
      </trkpt>
      <trkpt lat="46.31072" lon="-1.01607">
        <ele>3.2000000476837</ele>
        <time>2015-01-05T09:14:56.000Z</time>
      </trkpt>
      <trkpt lat="46.31078" lon="-1.01588">
        <ele>3</ele>
        <time>2015-01-05T09:15:06.000Z</time>
      </trkpt>
      <trkpt lat="46.31084" lon="-1.01566">
        <ele>3</ele>
        <time>2015-01-05T09:15:17.000Z</time>
      </trkpt>
      <trkpt lat="46.31091" lon="-1.01542">
        <ele>3</ele>
        <time>2015-01-05T09:15:29.000Z</time>
      </trkpt>
      <trkpt lat="46.31098" lon="-1.0152">
        <ele>3</ele>
        <time>2015-01-05T09:15:40.000Z</time>
      </trkpt>
      <trkpt lat="46.31105" lon="-1.01496">
        <ele>3</ele>
        <time>2015-01-05T09:15:52.000Z</time>
      </trkpt>
      <trkpt lat="46.31111" lon="-1.01474">
        <ele>3</ele>
        <time>2015-01-05T09:16:03.000Z</time>
      </trkpt>
      <trkpt lat="46.31118" lon="-1.01451">
        <ele>3</ele>
        <time>2015-01-05T09:16:14.000Z</time>
      </trkpt>
      <trkpt lat="46.31124" lon="-1.01431">
        <ele>3</ele>
        <time>2015-01-05T09:16:24.000Z</time>
      </trkpt>
      <trkpt lat="46.31129" lon="-1.01413">
        <ele>3</ele>
        <time>2015-01-05T09:16:33.000Z</time>
      </trkpt>
      <trkpt lat="46.31136" lon="-1.01393">
        <ele>3</ele>
        <time>2015-01-05T09:16:43.000Z</time>
      </trkpt>
      <trkpt lat="46.31141" lon="-1.01375">
        <ele>3</ele>
        <time>2015-01-05T09:16:52.000Z</time>
      </trkpt>
      <trkpt lat="46.31148" lon="-1.01353">
        <ele>3</ele>
        <time>2015-01-05T09:17:03.000Z</time>
      </trkpt>
      <trkpt lat="46.31155" lon="-1.01332">
        <ele>3</ele>
        <time>2015-01-05T09:17:14.000Z</time>
      </trkpt>
      <trkpt lat="46.31162" lon="-1.01308">
        <ele>3</ele>
        <time>2015-01-05T09:17:26.000Z</time>
      </trkpt>
      <trkpt lat="46.31169" lon="-1.01288">
        <ele>3</ele>
        <time>2015-01-05T09:17:36.000Z</time>
      </trkpt>
      <trkpt lat="46.31175" lon="-1.01268">
        <ele>3</ele>
        <time>2015-01-05T09:17:46.000Z</time>
      </trkpt>
      <trkpt lat="46.3118" lon="-1.01251">
        <ele>3</ele>
        <time>2015-01-05T09:17:55.000Z</time>
      </trkpt>
      <trkpt lat="46.31187" lon="-1.01228">
        <ele>3</ele>
        <time>2015-01-05T09:18:07.000Z</time>
      </trkpt>
      <trkpt lat="46.31193" lon="-1.01208">
        <ele>3</ele>
        <time>2015-01-05T09:18:17.000Z</time>
      </trkpt>
      <trkpt lat="46.312" lon="-1.01184">
        <ele>3</ele>
        <time>2015-01-05T09:18:29.000Z</time>
      </trkpt>
      <trkpt lat="46.31206" lon="-1.01165">
        <ele>3</ele>
        <time>2015-01-05T09:18:39.000Z</time>
      </trkpt>
      <trkpt lat="46.31212" lon="-1.01143">
        <ele>3</ele>
        <time>2015-01-05T09:18:50.000Z</time>
      </trkpt>
      <trkpt lat="46.31219" lon="-1.01121">
        <ele>3</ele>
        <time>2015-01-05T09:19:01.000Z</time>
      </trkpt>
      <trkpt lat="46.31224" lon="-1.01104">
        <ele>3</ele>
        <time>2015-01-05T09:19:10.000Z</time>
      </trkpt>
      <trkpt lat="46.31232" lon="-1.01078">
        <ele>2</ele>
        <time>2015-01-05T09:19:23.000Z</time>
      </trkpt>
      <trkpt lat="46.3124" lon="-1.01054">
        <ele>1.3999999761581</ele>
        <time>2015-01-05T09:19:35.000Z</time>
      </trkpt>
      <trkpt lat="46.31247" lon="-1.01034">
        <ele>1.2000000476837</ele>
        <time>2015-01-05T09:19:45.000Z</time>
      </trkpt>
      <trkpt lat="46.31253" lon="-1.0101">
        <ele>1</ele>
        <time>2015-01-05T09:19:57.000Z</time>
      </trkpt>
      <trkpt lat="46.31261" lon="-1.00985">
        <ele>1</ele>
        <time>2015-01-05T09:20:09.000Z</time>
      </trkpt>
      <trkpt lat="46.31267" lon="-1.00965">
        <ele>1</ele>
        <time>2015-01-05T09:20:19.000Z</time>
      </trkpt>
      <trkpt lat="46.31272" lon="-1.00946">
        <ele>1</ele>
        <time>2015-01-05T09:20:28.000Z</time>
      </trkpt>
      <trkpt lat="46.31278" lon="-1.00929">
        <ele>1</ele>
        <time>2015-01-05T09:20:37.000Z</time>
      </trkpt>
      <trkpt lat="46.31285" lon="-1.00907">
        <ele>1</ele>
        <time>2015-01-05T09:20:48.000Z</time>
      </trkpt>
      <trkpt lat="46.31291" lon="-1.00885">
        <ele>1</ele>
        <time>2015-01-05T09:20:59.000Z</time>
      </trkpt>
      <trkpt lat="46.31296" lon="-1.00865">
        <ele>1</ele>
        <time>2015-01-05T09:21:09.000Z</time>
      </trkpt>
      <trkpt lat="46.31303" lon="-1.00843">
        <ele>1</ele>
        <time>2015-01-05T09:21:20.000Z</time>
      </trkpt>
      <trkpt lat="46.31309" lon="-1.00819">
        <ele>1</ele>
        <time>2015-01-05T09:21:32.000Z</time>
      </trkpt>
      <trkpt lat="46.31314" lon="-1.00801">
        <ele>1</ele>
        <time>2015-01-05T09:21:41.000Z</time>
      </trkpt>
      <trkpt lat="46.31321" lon="-1.00777">
        <ele>1</ele>
        <time>2015-01-05T09:21:53.000Z</time>
      </trkpt>
      <trkpt lat="46.31328" lon="-1.00753">
        <ele>1</ele>
        <time>2015-01-05T09:22:05.000Z</time>
      </trkpt>
      <trkpt lat="46.31336" lon="-1.00729">
        <ele>1</ele>
        <time>2015-01-05T09:22:17.000Z</time>
      </trkpt>
      <trkpt lat="46.31342" lon="-1.0071">
        <ele>1</ele>
        <time>2015-01-05T09:22:26.000Z</time>
      </trkpt>
      <trkpt lat="46.3135" lon="-1.00685">
        <ele>1</ele>
        <time>2015-01-05T09:22:38.000Z</time>
      </trkpt>
      <trkpt lat="46.31356" lon="-1.00665">
        <ele>1</ele>
        <time>2015-01-05T09:22:48.000Z</time>
      </trkpt>
      <trkpt lat="46.31364" lon="-1.00641">
        <ele>1</ele>
        <time>2015-01-05T09:23:00.000Z</time>
      </trkpt>
      <trkpt lat="46.31371" lon="-1.00616">
        <ele>1</ele>
        <time>2015-01-05T09:23:12.000Z</time>
      </trkpt>
      <trkpt lat="46.31377" lon="-1.00596">
        <ele>1</ele>
        <time>2015-01-05T09:23:22.000Z</time>
      </trkpt>
      <trkpt lat="46.31384" lon="-1.00572">
        <ele>1</ele>
        <time>2015-01-05T09:23:34.000Z</time>
      </trkpt>
      <trkpt lat="46.31392" lon="-1.00547">
        <ele>1</ele>
        <time>2015-01-05T09:23:46.000Z</time>
      </trkpt>
      <trkpt lat="46.314" lon="-1.00525">
        <ele>2.4000000953674</ele>
        <time>2015-01-05T09:23:57.000Z</time>
      </trkpt>
      <trkpt lat="46.31405" lon="-1.00505">
        <ele>2.7999999523163</ele>
        <time>2015-01-05T09:24:07.000Z</time>
      </trkpt>
      <trkpt lat="46.31409" lon="-1.00489">
        <ele>3</ele>
        <time>2015-01-05T09:24:15.000Z</time>
      </trkpt>
      <trkpt lat="46.31415" lon="-1.00472">
        <ele>3</ele>
        <time>2015-01-05T09:24:24.000Z</time>
      </trkpt>
      <trkpt lat="46.3142" lon="-1.00457">
        <ele>3</ele>
        <time>2015-01-05T09:24:32.000Z</time>
      </trkpt>
      <trkpt lat="46.31423" lon="-1.00444">
        <ele>3</ele>
        <time>2015-01-05T09:24:41.000Z</time>
      </trkpt>
      <trkpt lat="46.31423" lon="-1.00437">
        <ele>3</ele>
        <time>2015-01-05T09:24:49.000Z</time>
      </trkpt>
      <trkpt lat="46.31423" lon="-1.00436">
        <ele>3</ele>
        <time>2015-01-05T09:24:51.000Z</time>
      </trkpt>
      <trkpt lat="46.31423" lon="-1.00436">
        <ele>3</ele>
        <time>2015-01-05T09:24:54.000Z</time>
      </trkpt>
      <trkpt lat="46.31422" lon="-1.00432">
        <ele>9</ele>
        <time>2015-01-05T09:25:58.000Z</time>
      </trkpt>
      <trkpt lat="46.31425" lon="-1.00426">
        <ele>9.3999996185303</ele>
        <time>2015-01-05T09:28:47.000Z</time>
      </trkpt>
      <trkpt lat="46.31425" lon="-1.00433">
        <ele>9.3999996185303</ele>
        <time>2015-01-05T09:29:02.000Z</time>
      </trkpt>
      <trkpt lat="46.31425" lon="-1.00434">
        <ele>9.3999996185303</ele>
        <time>2015-01-05T09:29:08.000Z</time>
      </trkpt>
      <trkpt lat="46.31425" lon="-1.00434">
        <ele>7.8000001907349</ele>
        <time>2015-01-05T09:29:48.000Z</time>
      </trkpt>
      <trkpt lat="46.31425" lon="-1.00431">
        <ele>7.4000000953674</ele>
        <time>2015-01-05T09:29:57.000Z</time>
      </trkpt>
      <trkpt lat="46.31426" lon="-1.00431">
        <ele>7.4000000953674</ele>
        <time>2015-01-05T09:30:02.000Z</time>
      </trkpt>
      <trkpt lat="46.31423" lon="-1.00434">
        <ele>5.1999998092651</ele>
        <time>2015-01-05T09:31:39.000Z</time>
      </trkpt>
      <trkpt lat="46.3142" lon="-1.00437">
        <ele>5.1999998092651</ele>
        <time>2015-01-05T09:31:46.000Z</time>
      </trkpt>
      <trkpt lat="46.3142" lon="-1.00437">
        <ele>5.1999998092651</ele>
        <time>2015-01-05T09:31:53.000Z</time>
      </trkpt>
      <trkpt lat="46.31422" lon="-1.00439">
        <ele>5.1999998092651</ele>
        <time>2015-01-05T09:32:03.000Z</time>
      </trkpt>
      <trkpt lat="46.31423" lon="-1.00435">
        <ele>5.1999998092651</ele>
        <time>2015-01-05T09:32:08.000Z</time>
      </trkpt>
      <trkpt lat="46.31422" lon="-1.00429">
        <ele>5.1999998092651</ele>
        <time>2015-01-05T09:32:16.000Z</time>
      </trkpt>
      <trkpt lat="46.31422" lon="-1.00425">
        <ele>5.1999998092651</ele>
        <time>2015-01-05T09:32:22.000Z</time>
      </trkpt>
      <trkpt lat="46.31421" lon="-1.00424">
        <ele>5.1999998092651</ele>
        <time>2015-01-05T09:32:27.000Z</time>
      </trkpt>
      <trkpt lat="46.31418" lon="-1.00417">
        <ele>5.1999998092651</ele>
        <time>2015-01-05T09:32:40.000Z</time>
      </trkpt>
      <trkpt lat="46.31409" lon="-1.00409">
        <ele>5.1999998092651</ele>
        <time>2015-01-05T09:32:48.000Z</time>
      </trkpt>
      <trkpt lat="46.31399" lon="-1.00397">
        <ele>5.1999998092651</ele>
        <time>2015-01-05T09:32:57.000Z</time>
      </trkpt>
      <trkpt lat="46.31395" lon="-1.00382">
        <ele>5.1999998092651</ele>
        <time>2015-01-05T09:33:04.000Z</time>
      </trkpt>
      <trkpt lat="46.31397" lon="-1.00366">
        <ele>5.1999998092651</ele>
        <time>2015-01-05T09:33:12.000Z</time>
      </trkpt>
      <trkpt lat="46.31401" lon="-1.0035">
        <ele>5.1999998092651</ele>
        <time>2015-01-05T09:33:21.000Z</time>
      </trkpt>
      <trkpt lat="46.31401" lon="-1.00309">
        <ele>5.1999998092651</ele>
        <time>2015-01-05T09:33:42.000Z</time>
      </trkpt>
      <trkpt lat="46.31393" lon="-1.00297">
        <ele>5.1999998092651</ele>
        <time>2015-01-05T09:33:50.000Z</time>
      </trkpt>
      <trkpt lat="46.31383" lon="-1.00288">
        <ele>5.1999998092651</ele>
        <time>2015-01-05T09:33:58.000Z</time>
      </trkpt>
      <trkpt lat="46.31371" lon="-1.00287">
        <ele>5.1999998092651</ele>
        <time>2015-01-05T09:34:07.000Z</time>
      </trkpt>
      <trkpt lat="46.31357" lon="-1.00287">
        <ele>5.1999998092651</ele>
        <time>2015-01-05T09:34:16.000Z</time>
      </trkpt>
      <trkpt lat="46.3134" lon="-1.00287">
        <ele>5.1999998092651</ele>
        <time>2015-01-05T09:34:28.000Z</time>
      </trkpt>
      <trkpt lat="46.31326" lon="-1.00287">
        <ele>5.1999998092651</ele>
        <time>2015-01-05T09:34:38.000Z</time>
      </trkpt>
      <trkpt lat="46.31309" lon="-1.00288">
        <ele>5.1999998092651</ele>
        <time>2015-01-05T09:34:49.000Z</time>
      </trkpt>
      <trkpt lat="46.31298" lon="-1.00288">
        <ele>5.1999998092651</ele>
        <time>2015-01-05T09:34:57.000Z</time>
      </trkpt>
      <trkpt lat="46.31283" lon="-1.00288">
        <ele>4.8000001907349</ele>
        <time>2015-01-05T09:35:07.000Z</time>
      </trkpt>
      <trkpt lat="46.31273" lon="-1.00292">
        <ele>4</ele>
        <time>2015-01-05T09:35:15.000Z</time>
      </trkpt>
      <trkpt lat="46.31267" lon="-1.00294">
        <ele>3.7999999523163</ele>
        <time>2015-01-05T09:35:19.000Z</time>
      </trkpt>
      <trkpt lat="46.31258" lon="-1.00288">
        <ele>3.4000000953674</ele>
        <time>2015-01-05T09:35:28.000Z</time>
      </trkpt>
      <trkpt lat="46.31256" lon="-1.00288">
        <ele>3.4000000953674</ele>
        <time>2015-01-05T09:35:29.000Z</time>
      </trkpt>
      <trkpt lat="46.31248" lon="-1.00305">
        <ele>3.4000000953674</ele>
        <time>2015-01-05T09:35:39.000Z</time>
      </trkpt>
      <trkpt lat="46.31238" lon="-1.00321">
        <ele>3.2000000476837</ele>
        <time>2015-01-05T09:35:49.000Z</time>
      </trkpt>
      <trkpt lat="46.31228" lon="-1.00335">
        <ele>3.2000000476837</ele>
        <time>2015-01-05T09:35:58.000Z</time>
      </trkpt>
      <trkpt lat="46.31221" lon="-1.00347">
        <ele>3.2000000476837</ele>
        <time>2015-01-05T09:36:06.000Z</time>
      </trkpt>
      <trkpt lat="46.31211" lon="-1.00362">
        <ele>3.2000000476837</ele>
        <time>2015-01-05T09:36:16.000Z</time>
      </trkpt>
      <trkpt lat="46.312" lon="-1.00382">
        <ele>3.2000000476837</ele>
        <time>2015-01-05T09:36:28.000Z</time>
      </trkpt>
      <trkpt lat="46.31188" lon="-1.00396">
        <ele>3.2000000476837</ele>
        <time>2015-01-05T09:36:38.000Z</time>
      </trkpt>
      <trkpt lat="46.31178" lon="-1.00404">
        <ele>3.2000000476837</ele>
        <time>2015-01-05T09:36:46.000Z</time>
      </trkpt>
      <trkpt lat="46.31168" lon="-1.0041">
        <ele>3.2000000476837</ele>
        <time>2015-01-05T09:36:54.000Z</time>
      </trkpt>
      <trkpt lat="46.31155" lon="-1.00415">
        <ele>3.2000000476837</ele>
        <time>2015-01-05T09:37:03.000Z</time>
      </trkpt>
      <trkpt lat="46.31145" lon="-1.00423">
        <ele>3.2000000476837</ele>
        <time>2015-01-05T09:37:11.000Z</time>
      </trkpt>
      <trkpt lat="46.31132" lon="-1.00434">
        <ele>3.2000000476837</ele>
        <time>2015-01-05T09:37:21.000Z</time>
      </trkpt>
      <trkpt lat="46.31119" lon="-1.00446">
        <ele>3.2000000476837</ele>
        <time>2015-01-05T09:37:31.000Z</time>
      </trkpt>
      <trkpt lat="46.31103" lon="-1.00458">
        <ele>3.2000000476837</ele>
        <time>2015-01-05T09:37:43.000Z</time>
      </trkpt>
      <trkpt lat="46.31091" lon="-1.00465">
        <ele>3.2000000476837</ele>
        <time>2015-01-05T09:37:52.000Z</time>
      </trkpt>
      <trkpt lat="46.3108" lon="-1.00468">
        <ele>3.2000000476837</ele>
        <time>2015-01-05T09:37:59.000Z</time>
      </trkpt>
      <trkpt lat="46.31072" lon="-1.00472">
        <ele>3.2000000476837</ele>
        <time>2015-01-05T09:38:05.000Z</time>
      </trkpt>
      <trkpt lat="46.31063" lon="-1.0048">
        <ele>3.2000000476837</ele>
        <time>2015-01-05T09:38:12.000Z</time>
      </trkpt>
      <trkpt lat="46.31052" lon="-1.0049">
        <ele>3.2000000476837</ele>
        <time>2015-01-05T09:38:20.000Z</time>
      </trkpt>
      <trkpt lat="46.31039" lon="-1.00499">
        <ele>3.2000000476837</ele>
        <time>2015-01-05T09:38:29.000Z</time>
      </trkpt>
      <trkpt lat="46.31025" lon="-1.00508">
        <ele>3.2000000476837</ele>
        <time>2015-01-05T09:38:39.000Z</time>
      </trkpt>
      <trkpt lat="46.3101" lon="-1.00517">
        <ele>3.2000000476837</ele>
        <time>2015-01-05T09:38:49.000Z</time>
      </trkpt>
      <trkpt lat="46.30996" lon="-1.00529">
        <ele>3.2000000476837</ele>
        <time>2015-01-05T09:38:59.000Z</time>
      </trkpt>
      <trkpt lat="46.30993" lon="-1.0053">
        <ele>3.2000000476837</ele>
        <time>2015-01-05T09:39:01.000Z</time>
      </trkpt>
      <trkpt lat="46.30987" lon="-1.00528">
        <ele>3.2000000476837</ele>
        <time>2015-01-05T09:39:05.000Z</time>
      </trkpt>
      <trkpt lat="46.30985" lon="-1.00514">
        <ele>3.2000000476837</ele>
        <time>2015-01-05T09:39:12.000Z</time>
      </trkpt>
      <trkpt lat="46.30986" lon="-1.00508">
        <ele>3.2000000476837</ele>
        <time>2015-01-05T09:39:15.000Z</time>
      </trkpt>
      <trkpt lat="46.30983" lon="-1.00507">
        <ele>3.2000000476837</ele>
        <time>2015-01-05T09:39:19.000Z</time>
      </trkpt>
      <trkpt lat="46.30958" lon="-1.00538">
        <ele>3.2000000476837</ele>
        <time>2015-01-05T09:39:41.000Z</time>
      </trkpt>
      <trkpt lat="46.30945" lon="-1.00546">
        <ele>3.2000000476837</ele>
        <time>2015-01-05T09:39:51.000Z</time>
      </trkpt>
      <trkpt lat="46.30932" lon="-1.00555">
        <ele>3.2000000476837</ele>
        <time>2015-01-05T09:40:01.000Z</time>
      </trkpt>
      <trkpt lat="46.30919" lon="-1.00563">
        <ele>3.2000000476837</ele>
        <time>2015-01-05T09:40:11.000Z</time>
      </trkpt>
      <trkpt lat="46.30909" lon="-1.0057">
        <ele>3.2000000476837</ele>
        <time>2015-01-05T09:40:18.000Z</time>
      </trkpt>
      <trkpt lat="46.30899" lon="-1.00576">
        <ele>3.2000000476837</ele>
        <time>2015-01-05T09:40:26.000Z</time>
      </trkpt>
      <trkpt lat="46.30884" lon="-1.00586">
        <ele>3.2000000476837</ele>
        <time>2015-01-05T09:40:37.000Z</time>
      </trkpt>
      <trkpt lat="46.30873" lon="-1.00592">
        <ele>3.2000000476837</ele>
        <time>2015-01-05T09:40:45.000Z</time>
      </trkpt>
      <trkpt lat="46.30859" lon="-1.006">
        <ele>3.2000000476837</ele>
        <time>2015-01-05T09:40:56.000Z</time>
      </trkpt>
      <trkpt lat="46.30848" lon="-1.00607">
        <ele>3.2000000476837</ele>
        <time>2015-01-05T09:41:05.000Z</time>
      </trkpt>
      <trkpt lat="46.30837" lon="-1.00612">
        <ele>3.2000000476837</ele>
        <time>2015-01-05T09:41:13.000Z</time>
      </trkpt>
      <trkpt lat="46.30822" lon="-1.00616">
        <ele>3.2000000476837</ele>
        <time>2015-01-05T09:41:24.000Z</time>
      </trkpt>
      <trkpt lat="46.30807" lon="-1.0062">
        <ele>3.2000000476837</ele>
        <time>2015-01-05T09:41:35.000Z</time>
      </trkpt>
      <trkpt lat="46.30798" lon="-1.00621">
        <ele>3.2000000476837</ele>
        <time>2015-01-05T09:41:42.000Z</time>
      </trkpt>
      <trkpt lat="46.30787" lon="-1.00622">
        <ele>3.2000000476837</ele>
        <time>2015-01-05T09:41:51.000Z</time>
      </trkpt>
      <trkpt lat="46.30775" lon="-1.00623">
        <ele>3.2000000476837</ele>
        <time>2015-01-05T09:42:00.000Z</time>
      </trkpt>
      <trkpt lat="46.30759" lon="-1.00622">
        <ele>3.2000000476837</ele>
        <time>2015-01-05T09:42:11.000Z</time>
      </trkpt>
      <trkpt lat="46.30746" lon="-1.00621">
        <ele>3.2000000476837</ele>
        <time>2015-01-05T09:42:20.000Z</time>
      </trkpt>
      <trkpt lat="46.30738" lon="-1.0062">
        <ele>3.2000000476837</ele>
        <time>2015-01-05T09:42:26.000Z</time>
      </trkpt>
      <trkpt lat="46.30729" lon="-1.00618">
        <ele>3.2000000476837</ele>
        <time>2015-01-05T09:42:32.000Z</time>
      </trkpt>
      <trkpt lat="46.30715" lon="-1.00614">
        <ele>3.2000000476837</ele>
        <time>2015-01-05T09:42:42.000Z</time>
      </trkpt>
      <trkpt lat="46.30703" lon="-1.00611">
        <ele>3.4000000953674</ele>
        <time>2015-01-05T09:42:51.000Z</time>
      </trkpt>
      <trkpt lat="46.30691" lon="-1.00606">
        <ele>4.5999999046326</ele>
        <time>2015-01-05T09:43:00.000Z</time>
      </trkpt>
      <trkpt lat="46.30679" lon="-1.00601">
        <ele>5</ele>
        <time>2015-01-05T09:43:08.000Z</time>
      </trkpt>
      <trkpt lat="46.30667" lon="-1.00593">
        <ele>5.1999998092651</ele>
        <time>2015-01-05T09:43:17.000Z</time>
      </trkpt>
      <trkpt lat="46.30657" lon="-1.00588">
        <ele>5.1999998092651</ele>
        <time>2015-01-05T09:43:25.000Z</time>
      </trkpt>
      <trkpt lat="46.30643" lon="-1.00578">
        <ele>5.1999998092651</ele>
        <time>2015-01-05T09:43:36.000Z</time>
      </trkpt>
      <trkpt lat="46.30634" lon="-1.00569">
        <ele>5.1999998092651</ele>
        <time>2015-01-05T09:43:44.000Z</time>
      </trkpt>
      <trkpt lat="46.30629" lon="-1.00556">
        <ele>5.1999998092651</ele>
        <time>2015-01-05T09:43:52.000Z</time>
      </trkpt>
      <trkpt lat="46.30621" lon="-1.00556">
        <ele>5.1999998092651</ele>
        <time>2015-01-05T09:43:58.000Z</time>
      </trkpt>
      <trkpt lat="46.3061" lon="-1.00558">
        <ele>5.4000000953674</ele>
        <time>2015-01-05T09:44:06.000Z</time>
      </trkpt>
      <trkpt lat="46.30605" lon="-1.00557">
        <ele>5.4000000953674</ele>
        <time>2015-01-05T09:44:10.000Z</time>
      </trkpt>
      <trkpt lat="46.30595" lon="-1.00562">
        <ele>5.4000000953674</ele>
        <time>2015-01-05T09:44:18.000Z</time>
      </trkpt>
      <trkpt lat="46.30584" lon="-1.00541">
        <ele>5.4000000953674</ele>
        <time>2015-01-05T09:44:35.000Z</time>
      </trkpt>
      <trkpt lat="46.30581" lon="-1.00534">
        <ele>5.4000000953674</ele>
        <time>2015-01-05T09:44:42.000Z</time>
      </trkpt>
      <trkpt lat="46.3058" lon="-1.00534">
        <ele>5.4000000953674</ele>
        <time>2015-01-05T09:44:43.000Z</time>
      </trkpt>
      <trkpt lat="46.30578" lon="-1.00533">
        <ele>5.4000000953674</ele>
        <time>2015-01-05T09:44:48.000Z</time>
      </trkpt>
      <trkpt lat="46.30576" lon="-1.00534">
        <ele>5.4000000953674</ele>
        <time>2015-01-05T09:44:54.000Z</time>
      </trkpt>
      <trkpt lat="46.30572" lon="-1.00536">
        <ele>5.4000000953674</ele>
        <time>2015-01-05T09:45:13.000Z</time>
      </trkpt>
      <trkpt lat="46.3057" lon="-1.00536">
        <ele>5.4000000953674</ele>
        <time>2015-01-05T09:45:18.000Z</time>
      </trkpt>
      <trkpt lat="46.3057" lon="-1.00538">
        <ele>5.4000000953674</ele>
        <time>2015-01-05T09:45:32.000Z</time>
      </trkpt>
      <trkpt lat="46.30569" lon="-1.00538">
        <ele>5.4000000953674</ele>
        <time>2015-01-05T09:45:54.000Z</time>
      </trkpt>
      <trkpt lat="46.30562" lon="-1.00541">
        <ele>5.4000000953674</ele>
        <time>2015-01-05T09:46:17.000Z</time>
      </trkpt>
      <trkpt lat="46.30555" lon="-1.00544">
        <ele>5.4000000953674</ele>
        <time>2015-01-05T09:46:25.000Z</time>
      </trkpt>
      <trkpt lat="46.30546" lon="-1.00546">
        <ele>6</ele>
        <time>2015-01-05T09:46:35.000Z</time>
      </trkpt>
      <trkpt lat="46.30544" lon="-1.00546">
        <ele>6.5999999046326</ele>
        <time>2015-01-05T09:46:40.000Z</time>
      </trkpt>
      <trkpt lat="46.30544" lon="-1.00546">
        <ele>7</ele>
        <time>2015-01-05T09:46:49.000Z</time>
      </trkpt>
      <trkpt lat="46.30544" lon="-1.00548">
        <ele>7.4000000953674</ele>
        <time>2015-01-05T09:48:42.000Z</time>
      </trkpt>
      <trkpt lat="46.30536" lon="-1.00539">
        <ele>7.4000000953674</ele>
        <time>2015-01-05T09:48:50.000Z</time>
      </trkpt>
      <trkpt lat="46.30535" lon="-1.00518">
        <ele>7.4000000953674</ele>
        <time>2015-01-05T09:48:59.000Z</time>
      </trkpt>
      <trkpt lat="46.30533" lon="-1.00496">
        <ele>7.4000000953674</ele>
        <time>2015-01-05T09:49:09.000Z</time>
      </trkpt>
      <trkpt lat="46.30529" lon="-1.00479">
        <ele>7.4000000953674</ele>
        <time>2015-01-05T09:49:17.000Z</time>
      </trkpt>
      <trkpt lat="46.30523" lon="-1.00464">
        <ele>7.4000000953674</ele>
        <time>2015-01-05T09:49:25.000Z</time>
      </trkpt>
      <trkpt lat="46.30514" lon="-1.00442">
        <ele>7.4000000953674</ele>
        <time>2015-01-05T09:49:37.000Z</time>
      </trkpt>
      <trkpt lat="46.30508" lon="-1.00425">
        <ele>7.4000000953674</ele>
        <time>2015-01-05T09:49:47.000Z</time>
      </trkpt>
      <trkpt lat="46.30499" lon="-1.00405">
        <ele>7.4000000953674</ele>
        <time>2015-01-05T09:49:58.000Z</time>
      </trkpt>
      <trkpt lat="46.30493" lon="-1.00388">
        <ele>7.4000000953674</ele>
        <time>2015-01-05T09:50:07.000Z</time>
      </trkpt>
      <trkpt lat="46.30485" lon="-1.00372">
        <ele>7.4000000953674</ele>
        <time>2015-01-05T09:50:16.000Z</time>
      </trkpt>
      <trkpt lat="46.30476" lon="-1.00352">
        <ele>7.1999998092651</ele>
        <time>2015-01-05T09:50:28.000Z</time>
      </trkpt>
      <trkpt lat="46.30469" lon="-1.00335">
        <ele>6</ele>
        <time>2015-01-05T09:50:37.000Z</time>
      </trkpt>
      <trkpt lat="46.30462" lon="-1.00322">
        <ele>5.5999999046326</ele>
        <time>2015-01-05T09:50:45.000Z</time>
      </trkpt>
      <trkpt lat="46.30453" lon="-1.00306">
        <ele>5.4000000953674</ele>
        <time>2015-01-05T09:50:55.000Z</time>
      </trkpt>
      <trkpt lat="46.30444" lon="-1.00289">
        <ele>5.1999998092651</ele>
        <time>2015-01-05T09:51:05.000Z</time>
      </trkpt>
      <trkpt lat="46.30434" lon="-1.00274">
        <ele>5.1999998092651</ele>
        <time>2015-01-05T09:51:15.000Z</time>
      </trkpt>
      <trkpt lat="46.30425" lon="-1.00259">
        <ele>5.1999998092651</ele>
        <time>2015-01-05T09:51:24.000Z</time>
      </trkpt>
      <trkpt lat="46.30415" lon="-1.0024">
        <ele>5.1999998092651</ele>
        <time>2015-01-05T09:51:35.000Z</time>
      </trkpt>
      <trkpt lat="46.30406" lon="-1.00218">
        <ele>5.1999998092651</ele>
        <time>2015-01-05T09:51:47.000Z</time>
      </trkpt>
      <trkpt lat="46.304" lon="-1.00201">
        <ele>5.1999998092651</ele>
        <time>2015-01-05T09:51:56.000Z</time>
      </trkpt>
      <trkpt lat="46.30393" lon="-1.0018">
        <ele>5.1999998092651</ele>
        <time>2015-01-05T09:52:07.000Z</time>
      </trkpt>
      <trkpt lat="46.30385" lon="-1.00159">
        <ele>5.1999998092651</ele>
        <time>2015-01-05T09:52:18.000Z</time>
      </trkpt>
      <trkpt lat="46.30378" lon="-1.00138">
        <ele>5.1999998092651</ele>
        <time>2015-01-05T09:52:29.000Z</time>
      </trkpt>
      <trkpt lat="46.30369" lon="-1.00113">
        <ele>5.1999998092651</ele>
        <time>2015-01-05T09:52:42.000Z</time>
      </trkpt>
      <trkpt lat="46.30361" lon="-1.0009">
        <ele>5.1999998092651</ele>
        <time>2015-01-05T09:52:54.000Z</time>
      </trkpt>
      <trkpt lat="46.30354" lon="-1.00072">
        <ele>5.1999998092651</ele>
        <time>2015-01-05T09:53:04.000Z</time>
      </trkpt>
      <trkpt lat="46.30347" lon="-1.00052">
        <ele>5.1999998092651</ele>
        <time>2015-01-05T09:53:15.000Z</time>
      </trkpt>
      <trkpt lat="46.3034" lon="-1.00034">
        <ele>6.4000000953674</ele>
        <time>2015-01-05T09:53:25.000Z</time>
      </trkpt>
      <trkpt lat="46.30334" lon="-1.00017">
        <ele>7</ele>
        <time>2015-01-05T09:53:34.000Z</time>
      </trkpt>
      <trkpt lat="46.30325" lon="-0.99993">
        <ele>7.1999998092651</ele>
        <time>2015-01-05T09:53:46.000Z</time>
      </trkpt>
      <trkpt lat="46.30318" lon="-0.99972">
        <ele>7.1999998092651</ele>
        <time>2015-01-05T09:53:57.000Z</time>
      </trkpt>
      <trkpt lat="46.30312" lon="-0.99954">
        <ele>7.1999998092651</ele>
        <time>2015-01-05T09:54:06.000Z</time>
      </trkpt>
      <trkpt lat="46.30308" lon="-0.99938">
        <ele>7.1999998092651</ele>
        <time>2015-01-05T09:54:14.000Z</time>
      </trkpt>
      <trkpt lat="46.30303" lon="-0.99919">
        <ele>8.3999996185303</ele>
        <time>2015-01-05T09:54:24.000Z</time>
      </trkpt>
      <trkpt lat="46.30292" lon="-0.99878">
        <ele>9.1999998092651</ele>
        <time>2015-01-05T09:54:44.000Z</time>
      </trkpt>
      <trkpt lat="46.30286" lon="-0.99857">
        <ele>9.3999996185303</ele>
        <time>2015-01-05T09:54:54.000Z</time>
      </trkpt>
      <trkpt lat="46.30279" lon="-0.99832">
        <ele>9.3999996185303</ele>
        <time>2015-01-05T09:55:06.000Z</time>
      </trkpt>
      <trkpt lat="46.30274" lon="-0.9981">
        <ele>9.3999996185303</ele>
        <time>2015-01-05T09:55:17.000Z</time>
      </trkpt>
      <trkpt lat="46.3027" lon="-0.99786">
        <ele>9.3999996185303</ele>
        <time>2015-01-05T09:55:28.000Z</time>
      </trkpt>
      <trkpt lat="46.3027" lon="-0.99769">
        <ele>9.3999996185303</ele>
        <time>2015-01-05T09:55:36.000Z</time>
      </trkpt>
      <trkpt lat="46.30267" lon="-0.99746">
        <ele>10.60000038147</ele>
        <time>2015-01-05T09:55:47.000Z</time>
      </trkpt>
      <trkpt lat="46.30262" lon="-0.9973">
        <ele>11</ele>
        <time>2015-01-05T09:55:55.000Z</time>
      </trkpt>
      <trkpt lat="46.30254" lon="-0.99708">
        <ele>11.199999809265</ele>
        <time>2015-01-05T09:56:06.000Z</time>
      </trkpt>
      <trkpt lat="46.30248" lon="-0.99691">
        <ele>11.39999961853</ele>
        <time>2015-01-05T09:56:15.000Z</time>
      </trkpt>
      <trkpt lat="46.30246" lon="-0.99686">
        <ele>11.39999961853</ele>
        <time>2015-01-05T09:56:17.000Z</time>
      </trkpt>
      <trkpt lat="46.3024" lon="-0.99668">
        <ele>11.39999961853</ele>
        <time>2015-01-05T09:56:26.000Z</time>
      </trkpt>
      <trkpt lat="46.30231" lon="-0.99642">
        <ele>11.39999961853</ele>
        <time>2015-01-05T09:56:38.000Z</time>
      </trkpt>
      <trkpt lat="46.30224" lon="-0.99622">
        <ele>11.39999961853</ele>
        <time>2015-01-05T09:56:49.000Z</time>
      </trkpt>
      <trkpt lat="46.30219" lon="-0.99603">
        <ele>11.39999961853</ele>
        <time>2015-01-05T09:56:57.000Z</time>
      </trkpt>
      <trkpt lat="46.30211" lon="-0.99583">
        <ele>11.39999961853</ele>
        <time>2015-01-05T09:57:07.000Z</time>
      </trkpt>
      <trkpt lat="46.30201" lon="-0.9956">
        <ele>10.800000190735</ele>
        <time>2015-01-05T09:57:19.000Z</time>
      </trkpt>
      <trkpt lat="46.30193" lon="-0.99542">
        <ele>9.8000001907349</ele>
        <time>2015-01-05T09:57:29.000Z</time>
      </trkpt>
      <trkpt lat="46.30182" lon="-0.99525">
        <ele>9.6000003814697</ele>
        <time>2015-01-05T09:57:39.000Z</time>
      </trkpt>
      <trkpt lat="46.30172" lon="-0.99509">
        <ele>9.3999996185303</ele>
        <time>2015-01-05T09:57:49.000Z</time>
      </trkpt>
      <trkpt lat="46.30171" lon="-0.99506">
        <ele>9.1999998092651</ele>
        <time>2015-01-05T09:57:51.000Z</time>
      </trkpt>
      <trkpt lat="46.30176" lon="-0.99496">
        <ele>8.3999996185303</ele>
        <time>2015-01-05T09:57:57.000Z</time>
      </trkpt>
      <trkpt lat="46.30186" lon="-0.99485">
        <ele>7.5999999046326</ele>
        <time>2015-01-05T09:58:06.000Z</time>
      </trkpt>
      <trkpt lat="46.30197" lon="-0.99476">
        <ele>7.4000000953674</ele>
        <time>2015-01-05T09:58:14.000Z</time>
      </trkpt>
      <trkpt lat="46.30209" lon="-0.99464">
        <ele>7.4000000953674</ele>
        <time>2015-01-05T09:58:24.000Z</time>
      </trkpt>
      <trkpt lat="46.30223" lon="-0.99452">
        <ele>7.4000000953674</ele>
        <time>2015-01-05T09:58:35.000Z</time>
      </trkpt>
      <trkpt lat="46.3024" lon="-0.99441">
        <ele>7.4000000953674</ele>
        <time>2015-01-05T09:58:47.000Z</time>
      </trkpt>
      <trkpt lat="46.30255" lon="-0.99433">
        <ele>7.4000000953674</ele>
        <time>2015-01-05T09:58:57.000Z</time>
      </trkpt>
      <trkpt lat="46.30272" lon="-0.99423">
        <ele>7.4000000953674</ele>
        <time>2015-01-05T09:59:09.000Z</time>
      </trkpt>
      <trkpt lat="46.30287" lon="-0.99414">
        <ele>7.4000000953674</ele>
        <time>2015-01-05T09:59:20.000Z</time>
      </trkpt>
      <trkpt lat="46.30304" lon="-0.99406">
        <ele>7.4000000953674</ele>
        <time>2015-01-05T09:59:31.000Z</time>
      </trkpt>
      <trkpt lat="46.30322" lon="-0.99398">
        <ele>7.4000000953674</ele>
        <time>2015-01-05T09:59:44.000Z</time>
      </trkpt>
      <trkpt lat="46.30339" lon="-0.99391">
        <ele>7.4000000953674</ele>
        <time>2015-01-05T09:59:54.000Z</time>
      </trkpt>
      <trkpt lat="46.30357" lon="-0.99389">
        <ele>7.4000000953674</ele>
        <time>2015-01-05T10:00:05.000Z</time>
      </trkpt>
      <trkpt lat="46.30365" lon="-0.9939">
        <ele>7.4000000953674</ele>
        <time>2015-01-05T10:00:10.000Z</time>
      </trkpt>
      <trkpt lat="46.30368" lon="-0.99397">
        <ele>7.4000000953674</ele>
        <time>2015-01-05T10:00:14.000Z</time>
      </trkpt>
      <trkpt lat="46.30376" lon="-0.99419">
        <ele>7.4000000953674</ele>
        <time>2015-01-05T10:00:26.000Z</time>
      </trkpt>
      <trkpt lat="46.30384" lon="-0.99445">
        <ele>7.4000000953674</ele>
        <time>2015-01-05T10:00:40.000Z</time>
      </trkpt>
      <trkpt lat="46.30385" lon="-0.99463">
        <ele>7.4000000953674</ele>
        <time>2015-01-05T10:00:49.000Z</time>
      </trkpt>
      <trkpt lat="46.30386" lon="-0.99475">
        <ele>7.4000000953674</ele>
        <time>2015-01-05T10:00:55.000Z</time>
      </trkpt>
      <trkpt lat="46.30387" lon="-0.99501">
        <ele>7.4000000953674</ele>
        <time>2015-01-05T10:01:08.000Z</time>
      </trkpt>
      <trkpt lat="46.30388" lon="-0.99524">
        <ele>7.4000000953674</ele>
        <time>2015-01-05T10:01:18.000Z</time>
      </trkpt>
      <trkpt lat="46.30402" lon="-0.99549">
        <ele>8.8000001907349</ele>
        <time>2015-01-05T10:01:43.000Z</time>
      </trkpt>
    </trkseg>
  </trk>
</gpx>